sensor_id;sensor_type;location;lat;lon;timestamp;P1;durP1;ratioP1;P2;durP2;ratioP2
35488;SDS011;21602;55.670;37.578;2023-05-07T00:02:00;3.60;;;2.80;;
35488;SDS011;21602;55.670;37.578;2023-05-07T00:04:27;2.95;;;2.28;;
35488;SDS011;21602;55.670;37.578;2023-05-07T00:06:53;4.32;;;3.08;;
35488;SDS011;21602;55.670;37.578;2023-05-07T00:09:21;6.10;;;3.10;;
35488;SDS011;21602;55.670;37.578;2023-05-07T00:11:47;4.63;;;2.97;;
35488;SDS011;21602;55.670;37.578;2023-05-07T00:14:13;5.25;;;2.67;;
35488;SDS011;21602;55.670;37.578;2023-05-07T00:16:39;4.22;;;3.42;;
35488;SDS011;21602;55.670;37.578;2023-05-07T00:19:04;4.70;;;3.10;;
35488;SDS011;21602;55.670;37.578;2023-05-07T00:21:30;4.07;;;3.25;;
35488;SDS011;21602;55.670;37.578;2023-05-07T00:23:56;5.35;;;3.13;;
35488;SDS011;21602;55.670;37.578;2023-05-07T00:26:22;4.03;;;2.95;;
35488;SDS011;21602;55.670;37.578;2023-05-07T00:28:50;6.32;;;3.08;;
35488;SDS011;21602;55.670;37.578;2023-05-07T00:31:16;4.65;;;3.13;;
35488;SDS011;21602;55.670;37.578;2023-05-07T00:33:41;3.80;;;2.47;;
35488;SDS011;21602;55.670;37.578;2023-05-07T00:36:07;3.30;;;2.67;;
35488;SDS011;21602;55.670;37.578;2023-05-07T00:38:33;4.35;;;2.72;;
35488;SDS011;21602;55.670;37.578;2023-05-07T00:40:59;4.47;;;3.17;;
35488;SDS011;21602;55.670;37.578;2023-05-07T00:43:25;4.13;;;2.85;;
35488;SDS011;21602;55.670;37.578;2023-05-07T00:45:51;5.47;;;2.88;;
35488;SDS011;21602;55.670;37.578;2023-05-07T00:48:17;4.95;;;3.00;;
35488;SDS011;21602;55.670;37.578;2023-05-07T00:50:43;3.70;;;2.97;;
35488;SDS011;21602;55.670;37.578;2023-05-07T00:53:11;6.03;;;3.28;;
35488;SDS011;21602;55.670;37.578;2023-05-07T00:55:38;5.07;;;3.20;;
35488;SDS011;21602;55.670;37.578;2023-05-07T00:58:04;7.63;;;3.10;;
35488;SDS011;21602;55.670;37.578;2023-05-07T01:00:32;4.10;;;2.67;;
35488;SDS011;21602;55.670;37.578;2023-05-07T01:02:58;4.47;;;3.10;;
35488;SDS011;21602;55.670;37.578;2023-05-07T01:05:24;3.47;;;2.80;;
35488;SDS011;21602;55.670;37.578;2023-05-07T01:07:51;4.05;;;2.97;;
35488;SDS011;21602;55.670;37.578;2023-05-07T01:10:20;4.25;;;3.35;;
35488;SDS011;21602;55.670;37.578;2023-05-07T01:12:47;4.70;;;2.90;;
35488;SDS011;21602;55.670;37.578;2023-05-07T01:15:15;2.80;;;2.50;;
35488;SDS011;21602;55.670;37.578;2023-05-07T01:17:43;6.30;;;3.03;;
35488;SDS011;21602;55.670;37.578;2023-05-07T01:20:18;5.65;;;2.80;;
35488;SDS011;21602;55.670;37.578;2023-05-07T01:22:47;6.38;;;3.10;;
35488;SDS011;21602;55.670;37.578;2023-05-07T01:25:14;3.08;;;2.72;;
35488;SDS011;21602;55.670;37.578;2023-05-07T01:27:46;3.20;;;2.90;;
35488;SDS011;21602;55.670;37.578;2023-05-07T01:30:13;3.35;;;3.00;;
35488;SDS011;21602;55.670;37.578;2023-05-07T01:32:43;5.30;;;2.50;;
35488;SDS011;21602;55.670;37.578;2023-05-07T01:35:21;3.25;;;2.67;;
35488;SDS011;21602;55.670;37.578;2023-05-07T01:37:50;4.13;;;3.42;;
35488;SDS011;21602;55.670;37.578;2023-05-07T01:40:16;6.45;;;3.00;;
35488;SDS011;21602;55.670;37.578;2023-05-07T01:42:43;4.60;;;2.55;;
35488;SDS011;21602;55.670;37.578;2023-05-07T01:45:09;5.15;;;2.75;;
35488;SDS011;21602;55.670;37.578;2023-05-07T01:47:36;4.57;;;2.47;;
35488;SDS011;21602;55.670;37.578;2023-05-07T01:50:03;3.15;;;2.85;;
35488;SDS011;21602;55.670;37.578;2023-05-07T01:52:31;4.82;;;2.80;;
35488;SDS011;21602;55.670;37.578;2023-05-07T01:54:57;3.40;;;2.90;;
35488;SDS011;21602;55.670;37.578;2023-05-07T01:57:23;4.03;;;3.10;;
35488;SDS011;21602;55.670;37.578;2023-05-07T01:59:48;4.15;;;3.50;;
35488;SDS011;21602;55.670;37.578;2023-05-07T02:02:14;4.53;;;3.25;;
35488;SDS011;21602;55.670;37.578;2023-05-07T02:04:42;6.43;;;3.27;;
35488;SDS011;21602;55.670;37.578;2023-05-07T02:07:08;5.22;;;3.47;;
35488;SDS011;21602;55.670;37.578;2023-05-07T02:09:34;3.83;;;3.05;;
35488;SDS011;21602;55.670;37.578;2023-05-07T02:12:00;5.03;;;3.50;;
35488;SDS011;21602;55.670;37.578;2023-05-07T02:14:27;5.47;;;3.35;;
35488;SDS011;21602;55.670;37.578;2023-05-07T02:16:52;4.07;;;3.17;;
35488;SDS011;21602;55.670;37.578;2023-05-07T02:19:19;4.43;;;3.08;;
35488;SDS011;21602;55.670;37.578;2023-05-07T02:21:47;4.43;;;3.10;;
35488;SDS011;21602;55.670;37.578;2023-05-07T02:24:13;3.92;;;2.92;;
35488;SDS011;21602;55.670;37.578;2023-05-07T02:26:39;3.53;;;2.85;;
35488;SDS011;21602;55.670;37.578;2023-05-07T02:29:06;3.40;;;2.95;;
35488;SDS011;21602;55.670;37.578;2023-05-07T02:31:33;11.98;;;3.35;;
35488;SDS011;21602;55.670;37.578;2023-05-07T02:34:01;3.58;;;3.22;;
35488;SDS011;21602;55.670;37.578;2023-05-07T02:36:27;3.03;;;2.72;;
35488;SDS011;21602;55.670;37.578;2023-05-07T02:39:08;7.43;;;3.53;;
35488;SDS011;21602;55.670;37.578;2023-05-07T02:41:34;3.90;;;3.15;;
35488;SDS011;21602;55.670;37.578;2023-05-07T02:44:00;4.95;;;3.08;;
35488;SDS011;21602;55.670;37.578;2023-05-07T02:46:26;3.17;;;2.80;;
35488;SDS011;21602;55.670;37.578;2023-05-07T02:48:59;4.85;;;3.67;;
35488;SDS011;21602;55.670;37.578;2023-05-07T02:51:25;4.63;;;3.58;;
35488;SDS011;21602;55.670;37.578;2023-05-07T02:53:51;5.50;;;4.25;;
35488;SDS011;21602;55.670;37.578;2023-05-07T02:56:17;9.75;;;5.10;;
35488;SDS011;21602;55.670;37.578;2023-05-07T02:58:43;6.10;;;4.30;;
35488;SDS011;21602;55.670;37.578;2023-05-07T03:01:09;7.43;;;4.53;;
35488;SDS011;21602;55.670;37.578;2023-05-07T03:03:46;7.00;;;4.75;;
35488;SDS011;21602;55.670;37.578;2023-05-07T03:06:12;5.20;;;4.43;;
35488;SDS011;21602;55.670;37.578;2023-05-07T03:08:38;6.30;;;4.28;;
35488;SDS011;21602;55.670;37.578;2023-05-07T03:11:03;7.82;;;4.50;;
35488;SDS011;21602;55.670;37.578;2023-05-07T03:13:29;5.03;;;3.55;;
35488;SDS011;21602;55.670;37.578;2023-05-07T03:15:56;5.07;;;3.83;;
35488;SDS011;21602;55.670;37.578;2023-05-07T03:18:21;5.03;;;3.33;;
35488;SDS011;21602;55.670;37.578;2023-05-07T03:20:48;3.83;;;2.88;;
35488;SDS011;21602;55.670;37.578;2023-05-07T03:23:15;4.72;;;3.15;;
35488;SDS011;21602;55.670;37.578;2023-05-07T03:25:40;5.22;;;2.95;;
35488;SDS011;21602;55.670;37.578;2023-05-07T03:28:06;5.65;;;3.42;;
35488;SDS011;21602;55.670;37.578;2023-05-07T03:30:39;4.80;;;3.17;;
35488;SDS011;21602;55.670;37.578;2023-05-07T03:33:04;3.55;;;2.58;;
35488;SDS011;21602;55.670;37.578;2023-05-07T03:35:30;3.90;;;2.97;;
35488;SDS011;21602;55.670;37.578;2023-05-07T03:37:56;3.55;;;2.80;;
35488;SDS011;21602;55.670;37.578;2023-05-07T03:40:22;4.35;;;3.00;;
35488;SDS011;21602;55.670;37.578;2023-05-07T03:42:52;3.30;;;2.58;;
35488;SDS011;21602;55.670;37.578;2023-05-07T03:47:55;7.35;;;2.58;;
35488;SDS011;21602;55.670;37.578;2023-05-07T03:50:21;3.30;;;2.70;;
35488;SDS011;21602;55.670;37.578;2023-05-07T03:52:48;5.43;;;2.45;;
35488;SDS011;21602;55.670;37.578;2023-05-07T03:55:16;5.13;;;2.90;;
35488;SDS011;21602;55.670;37.578;2023-05-07T03:57:47;2.10;;;1.90;;
35488;SDS011;21602;55.670;37.578;2023-05-07T04:00:13;2.65;;;2.38;;
35488;SDS011;21602;55.670;37.578;2023-05-07T04:02:48;4.30;;;2.75;;
35488;SDS011;21602;55.670;37.578;2023-05-07T04:05:19;3.13;;;2.78;;
35488;SDS011;21602;55.670;37.578;2023-05-07T04:07:49;4.18;;;2.65;;
35488;SDS011;21602;55.670;37.578;2023-05-07T04:10:19;5.10;;;2.55;;
35488;SDS011;21602;55.670;37.578;2023-05-07T04:12:47;3.13;;;2.45;;
35488;SDS011;21602;55.670;37.578;2023-05-07T04:15:18;4.35;;;3.00;;
35488;SDS011;21602;55.670;37.578;2023-05-07T04:17:43;4.65;;;2.80;;
35488;SDS011;21602;55.670;37.578;2023-05-07T04:20:15;4.10;;;2.63;;
35488;SDS011;21602;55.670;37.578;2023-05-07T04:22:43;4.10;;;2.55;;
35488;SDS011;21602;55.670;37.578;2023-05-07T04:25:09;4.05;;;2.42;;
35488;SDS011;21602;55.670;37.578;2023-05-07T04:27:36;4.47;;;2.53;;
35488;SDS011;21602;55.670;37.578;2023-05-07T04:30:03;2.75;;;2.17;;
35488;SDS011;21602;55.670;37.578;2023-05-07T04:32:34;5.05;;;2.53;;
35488;SDS011;21602;55.670;37.578;2023-05-07T04:35:01;3.13;;;2.28;;
35488;SDS011;21602;55.670;37.578;2023-05-07T04:37:29;4.45;;;2.50;;
35488;SDS011;21602;55.670;37.578;2023-05-07T04:39:57;3.30;;;2.33;;
35488;SDS011;21602;55.670;37.578;2023-05-07T04:42:23;2.70;;;1.98;;
35488;SDS011;21602;55.670;37.578;2023-05-07T04:44:52;3.03;;;1.90;;
35488;SDS011;21602;55.670;37.578;2023-05-07T04:47:19;2.60;;;2.00;;
35488;SDS011;21602;55.670;37.578;2023-05-07T04:49:46;2.55;;;2.05;;
35488;SDS011;21602;55.670;37.578;2023-05-07T04:52:12;2.47;;;2.15;;
35488;SDS011;21602;55.670;37.578;2023-05-07T04:54:38;4.43;;;2.20;;
35488;SDS011;21602;55.670;37.578;2023-05-07T04:57:06;6.25;;;2.50;;
35488;SDS011;21602;55.670;37.578;2023-05-07T04:59:32;2.20;;;1.92;;
35488;SDS011;21602;55.670;37.578;2023-05-07T05:01:58;3.22;;;1.83;;
35488;SDS011;21602;55.670;37.578;2023-05-07T05:04:25;2.47;;;2.00;;
35488;SDS011;21602;55.670;37.578;2023-05-07T05:06:51;2.40;;;1.65;;
35488;SDS011;21602;55.670;37.578;2023-05-07T05:09:17;5.40;;;2.08;;
35488;SDS011;21602;55.670;37.578;2023-05-07T05:11:43;2.50;;;1.80;;
35488;SDS011;21602;55.670;37.578;2023-05-07T05:14:09;2.13;;;1.70;;
35488;SDS011;21602;55.670;37.578;2023-05-07T05:16:35;3.33;;;2.28;;
35488;SDS011;21602;55.670;37.578;2023-05-07T05:19:01;1.70;;;1.45;;
35488;SDS011;21602;55.670;37.578;2023-05-07T05:21:32;1.90;;;1.70;;
35488;SDS011;21602;55.670;37.578;2023-05-07T05:24:04;5.80;;;2.05;;
35488;SDS011;21602;55.670;37.578;2023-05-07T05:26:31;2.58;;;1.55;;
35488;SDS011;21602;55.670;37.578;2023-05-07T05:28:57;3.10;;;1.60;;
35488;SDS011;21602;55.670;37.578;2023-05-07T05:31:25;5.88;;;1.77;;
35488;SDS011;21602;55.670;37.578;2023-05-07T05:33:51;2.47;;;1.60;;
35488;SDS011;21602;55.670;37.578;2023-05-07T05:36:17;2.28;;;1.38;;
35488;SDS011;21602;55.670;37.578;2023-05-07T05:38:45;2.15;;;1.50;;
35488;SDS011;21602;55.670;37.578;2023-05-07T05:41:12;3.90;;;1.75;;
35488;SDS011;21602;55.670;37.578;2023-05-07T05:43:38;2.40;;;1.83;;
35488;SDS011;21602;55.670;37.578;2023-05-07T05:46:04;2.10;;;1.67;;
35488;SDS011;21602;55.670;37.578;2023-05-07T05:48:30;2.90;;;2.05;;
35488;SDS011;21602;55.670;37.578;2023-05-07T05:51:00;3.85;;;1.55;;
35488;SDS011;21602;55.670;37.578;2023-05-07T05:53:26;1.48;;;1.38;;
35488;SDS011;21602;55.670;37.578;2023-05-07T05:55:53;3.13;;;1.50;;
35488;SDS011;21602;55.670;37.578;2023-05-07T05:58:19;6.82;;;1.65;;
35488;SDS011;21602;55.670;37.578;2023-05-07T06:00:51;1.90;;;1.30;;
35488;SDS011;21602;55.670;37.578;2023-05-07T06:03:20;2.63;;;1.70;;
35488;SDS011;21602;55.670;37.578;2023-05-07T06:05:46;6.03;;;1.50;;
35488;SDS011;21602;55.670;37.578;2023-05-07T06:08:13;2.10;;;1.60;;
35488;SDS011;21602;55.670;37.578;2023-05-07T06:10:39;1.77;;;1.63;;
35488;SDS011;21602;55.670;37.578;2023-05-07T06:13:07;2.42;;;1.65;;
35488;SDS011;21602;55.670;37.578;2023-05-07T06:15:35;4.60;;;2.20;;
35488;SDS011;21602;55.670;37.578;2023-05-07T06:18:06;2.92;;;1.70;;
35488;SDS011;21602;55.670;37.578;2023-05-07T06:20:32;4.47;;;1.90;;
35488;SDS011;21602;55.670;37.578;2023-05-07T06:23:03;5.97;;;1.77;;
35488;SDS011;21602;55.670;37.578;2023-05-07T06:25:32;1.50;;;1.40;;
35488;SDS011;21602;55.670;37.578;2023-05-07T06:27:57;6.88;;;1.65;;
35488;SDS011;21602;55.670;37.578;2023-05-07T06:30:24;4.82;;;1.25;;
35488;SDS011;21602;55.670;37.578;2023-05-07T06:32:50;2.13;;;1.25;;
35488;SDS011;21602;55.670;37.578;2023-05-07T06:35:17;1.63;;;1.30;;
35488;SDS011;21602;55.670;37.578;2023-05-07T06:37:43;1.95;;;1.30;;
35488;SDS011;21602;55.670;37.578;2023-05-07T06:40:13;2.30;;;1.20;;
35488;SDS011;21602;55.670;37.578;2023-05-07T06:42:41;1.40;;;1.23;;
35488;SDS011;21602;55.670;37.578;2023-05-07T06:45:32;1.63;;;1.30;;
35488;SDS011;21602;55.670;37.578;2023-05-07T06:47:58;2.00;;;1.42;;
35488;SDS011;21602;55.670;37.578;2023-05-07T06:50:26;4.13;;;1.20;;
35488;SDS011;21602;55.670;37.578;2023-05-07T06:52:55;2.58;;;1.42;;
35488;SDS011;21602;55.670;37.578;2023-05-07T06:55:21;3.22;;;1.30;;
35488;SDS011;21602;55.670;37.578;2023-05-07T06:57:47;1.55;;;1.02;;
35488;SDS011;21602;55.670;37.578;2023-05-07T07:00:14;3.85;;;1.10;;
35488;SDS011;21602;55.670;37.578;2023-05-07T07:02:49;1.73;;;1.38;;
35488;SDS011;21602;55.670;37.578;2023-05-07T07:05:18;2.38;;;0.93;;
35488;SDS011;21602;55.670;37.578;2023-05-07T07:07:44;1.75;;;1.30;;
35488;SDS011;21602;55.670;37.578;2023-05-07T07:10:21;1.25;;;1.15;;
35488;SDS011;21602;55.670;37.578;2023-05-07T07:12:49;2.90;;;1.25;;
35488;SDS011;21602;55.670;37.578;2023-05-07T07:15:15;2.85;;;1.30;;
35488;SDS011;21602;55.670;37.578;2023-05-07T07:17:42;1.85;;;1.13;;
35488;SDS011;21602;55.670;37.578;2023-05-07T07:20:08;2.92;;;1.00;;
35488;SDS011;21602;55.670;37.578;2023-05-07T07:22:34;2.75;;;1.40;;
35488;SDS011;21602;55.670;37.578;2023-05-07T07:25:00;1.42;;;0.98;;
35488;SDS011;21602;55.670;37.578;2023-05-07T07:27:26;1.33;;;1.20;;
35488;SDS011;21602;55.670;37.578;2023-05-07T07:29:52;1.63;;;1.08;;
35488;SDS011;21602;55.670;37.578;2023-05-07T07:32:18;1.48;;;1.00;;
35488;SDS011;21602;55.670;37.578;2023-05-07T07:34:44;1.92;;;1.10;;
35488;SDS011;21602;55.670;37.578;2023-05-07T07:37:11;2.03;;;1.35;;
35488;SDS011;21602;55.670;37.578;2023-05-07T07:39:37;1.02;;;0.93;;
35488;SDS011;21602;55.670;37.578;2023-05-07T07:42:04;2.80;;;1.00;;
35488;SDS011;21602;55.670;37.578;2023-05-07T07:44:31;4.45;;;1.40;;
35488;SDS011;21602;55.670;37.578;2023-05-07T07:47:02;2.60;;;1.33;;
35488;SDS011;21602;55.670;37.578;2023-05-07T07:49:29;4.00;;;1.40;;
35488;SDS011;21602;55.670;37.578;2023-05-07T07:51:58;3.05;;;1.23;;
35488;SDS011;21602;55.670;37.578;2023-05-07T07:54:25;3.83;;;1.40;;
35488;SDS011;21602;55.670;37.578;2023-05-07T07:56:52;1.85;;;1.00;;
35488;SDS011;21602;55.670;37.578;2023-05-07T07:59:19;2.08;;;1.30;;
35488;SDS011;21602;55.670;37.578;2023-05-07T08:01:48;7.80;;;2.20;;
35488;SDS011;21602;55.670;37.578;2023-05-07T08:06:41;1.42;;;1.00;;
35488;SDS011;21602;55.670;37.578;2023-05-07T08:09:09;1.05;;;0.98;;
35488;SDS011;21602;55.670;37.578;2023-05-07T08:11:36;3.60;;;0.70;;
35488;SDS011;21602;55.670;37.578;2023-05-07T08:14:04;0.93;;;0.82;;
35488;SDS011;21602;55.670;37.578;2023-05-07T08:16:30;0.88;;;0.55;;
35488;SDS011;21602;55.670;37.578;2023-05-07T08:18:58;0.75;;;0.73;;
35488;SDS011;21602;55.670;37.578;2023-05-07T08:21:25;2.60;;;1.10;;
35488;SDS011;21602;55.670;37.578;2023-05-07T08:23:52;1.10;;;1.00;;
35488;SDS011;21602;55.670;37.578;2023-05-07T08:26:18;1.20;;;1.10;;
35488;SDS011;21602;55.670;37.578;2023-05-07T08:28:44;2.17;;;1.20;;
35488;SDS011;21602;55.670;37.578;2023-05-07T08:31:10;1.38;;;1.02;;
35488;SDS011;21602;55.670;37.578;2023-05-07T08:33:39;1.65;;;1.05;;
35488;SDS011;21602;55.670;37.578;2023-05-07T08:36:05;4.38;;;1.08;;
35488;SDS011;21602;55.670;37.578;2023-05-07T08:38:32;1.23;;;0.90;;
35488;SDS011;21602;55.670;37.578;2023-05-07T08:40:58;1.08;;;0.98;;
35488;SDS011;21602;55.670;37.578;2023-05-07T08:43:26;4.20;;;1.30;;
35488;SDS011;21602;55.670;37.578;2023-05-07T08:45:54;2.72;;;1.30;;
35488;SDS011;21602;55.670;37.578;2023-05-07T08:48:25;1.15;;;1.00;;
35488;SDS011;21602;55.670;37.578;2023-05-07T08:51:04;1.58;;;1.10;;
35488;SDS011;21602;55.670;37.578;2023-05-07T08:53:31;2.08;;;1.13;;
35488;SDS011;21602;55.670;37.578;2023-05-07T08:55:59;3.60;;;0.67;;
35488;SDS011;21602;55.670;37.578;2023-05-07T08:58:25;1.58;;;0.80;;
35488;SDS011;21602;55.670;37.578;2023-05-07T09:00:52;3.20;;;0.90;;
35488;SDS011;21602;55.670;37.578;2023-05-07T09:03:20;1.25;;;0.82;;
35488;SDS011;21602;55.670;37.578;2023-05-07T09:05:49;2.97;;;0.85;;
35488;SDS011;21602;55.670;37.578;2023-05-07T09:08:17;1.15;;;1.05;;
35488;SDS011;21602;55.670;37.578;2023-05-07T09:10:46;1.52;;;0.80;;
35488;SDS011;21602;55.670;37.578;2023-05-07T09:13:13;0.95;;;0.88;;
35488;SDS011;21602;55.670;37.578;2023-05-07T09:15:40;0.90;;;0.88;;
35488;SDS011;21602;55.670;37.578;2023-05-07T09:18:07;1.42;;;0.82;;
35488;SDS011;21602;55.670;37.578;2023-05-07T09:20:38;1.27;;;0.70;;
35488;SDS011;21602;55.670;37.578;2023-05-07T09:23:08;2.03;;;0.80;;
35488;SDS011;21602;55.670;37.578;2023-05-07T09:25:36;2.10;;;0.95;;
35488;SDS011;21602;55.670;37.578;2023-05-07T09:28:12;1.92;;;1.33;;
35488;SDS011;21602;55.670;37.578;2023-05-07T09:30:38;1.58;;;0.85;;
35488;SDS011;21602;55.670;37.578;2023-05-07T09:33:07;2.00;;;0.90;;
35488;SDS011;21602;55.670;37.578;2023-05-07T09:35:37;5.15;;;1.30;;
35488;SDS011;21602;55.670;37.578;2023-05-07T09:38:08;1.67;;;1.20;;
35488;SDS011;21602;55.670;37.578;2023-05-07T09:40:38;3.95;;;1.00;;
35488;SDS011;21602;55.670;37.578;2023-05-07T09:43:09;1.15;;;1.02;;
35488;SDS011;21602;55.670;37.578;2023-05-07T09:45:40;2.42;;;0.90;;
35488;SDS011;21602;55.670;37.578;2023-05-07T09:48:07;2.05;;;1.48;;
35488;SDS011;21602;55.670;37.578;2023-05-07T09:50:40;2.42;;;1.00;;
35488;SDS011;21602;55.670;37.578;2023-05-07T09:53:15;1.30;;;1.10;;
35488;SDS011;21602;55.670;37.578;2023-05-07T09:55:43;2.28;;;1.10;;
35488;SDS011;21602;55.670;37.578;2023-05-07T09:58:12;2.80;;;0.85;;
35488;SDS011;21602;55.670;37.578;2023-05-07T10:03:11;4.22;;;0.93;;
35488;SDS011;21602;55.670;37.578;2023-05-07T10:05:48;1.00;;;0.90;;
35488;SDS011;21602;55.670;37.578;2023-05-07T10:08:15;2.08;;;1.35;;
35488;SDS011;21602;55.670;37.578;2023-05-07T10:13:14;3.10;;;1.10;;
35488;SDS011;21602;55.670;37.578;2023-05-07T10:15:46;4.43;;;1.02;;
35488;SDS011;21602;55.670;37.578;2023-05-07T10:18:18;2.20;;;1.10;;
35488;SDS011;21602;55.670;37.578;2023-05-07T10:20:49;1.95;;;0.90;;
35488;SDS011;21602;55.670;37.578;2023-05-07T10:23:23;2.72;;;1.15;;
35488;SDS011;21602;55.670;37.578;2023-05-07T10:25:53;0.98;;;0.75;;
35488;SDS011;21602;55.670;37.578;2023-05-07T10:28:22;1.60;;;0.73;;
35488;SDS011;21602;55.670;37.578;2023-05-07T10:31:13;2.13;;;1.20;;
35488;SDS011;21602;55.670;37.578;2023-05-07T10:33:48;4.43;;;0.88;;
35488;SDS011;21602;55.670;37.578;2023-05-07T10:36:19;2.30;;;0.98;;
35488;SDS011;21602;55.670;37.578;2023-05-07T10:38:46;2.03;;;1.23;;
35488;SDS011;21602;55.670;37.578;2023-05-07T10:41:13;1.15;;;0.90;;
35488;SDS011;21602;55.670;37.578;2023-05-07T10:43:43;2.47;;;0.98;;
35488;SDS011;21602;55.670;37.578;2023-05-07T10:46:18;4.20;;;1.20;;
35488;SDS011;21602;55.670;37.578;2023-05-07T10:51:34;2.63;;;0.90;;
35488;SDS011;21602;55.670;37.578;2023-05-07T10:56:44;2.40;;;0.70;;
35488;SDS011;21602;55.670;37.578;2023-05-07T11:01:59;1.92;;;1.20;;
35488;SDS011;21602;55.670;37.578;2023-05-07T11:04:43;1.52;;;0.80;;
35488;SDS011;21602;55.670;37.578;2023-05-07T11:09:56;0.98;;;0.90;;
35488;SDS011;21602;55.670;37.578;2023-05-07T11:12:50;1.60;;;0.70;;
35488;SDS011;21602;55.670;37.578;2023-05-07T11:15:34;3.45;;;0.77;;
35488;SDS011;21602;55.670;37.578;2023-05-07T11:18:04;2.63;;;1.30;;
35488;SDS011;21602;55.670;37.578;2023-05-07T11:26:13;4.57;;;0.82;;
35488;SDS011;21602;55.670;37.578;2023-05-07T11:28:40;3.38;;;0.82;;
35488;SDS011;21602;55.670;37.578;2023-05-07T11:31:08;1.38;;;0.90;;
35488;SDS011;21602;55.670;37.578;2023-05-07T11:33:37;3.90;;;1.05;;
35488;SDS011;21602;55.670;37.578;2023-05-07T11:36:07;2.80;;;1.20;;
35488;SDS011;21602;55.670;37.578;2023-05-07T11:38:39;2.33;;;0.98;;
35488;SDS011;21602;55.670;37.578;2023-05-07T11:41:05;4.03;;;1.15;;
35488;SDS011;21602;55.670;37.578;2023-05-07T11:43:31;1.25;;;1.02;;
35488;SDS011;21602;55.670;37.578;2023-05-07T11:46:08;2.33;;;1.45;;
35488;SDS011;21602;55.670;37.578;2023-05-07T11:48:35;1.52;;;1.20;;
35488;SDS011;21602;55.670;37.578;2023-05-07T11:51:03;1.45;;;1.23;;
35488;SDS011;21602;55.670;37.578;2023-05-07T11:53:40;3.63;;;1.27;;
35488;SDS011;21602;55.670;37.578;2023-05-07T11:56:08;1.40;;;1.05;;
35488;SDS011;21602;55.670;37.578;2023-05-07T11:58:35;5.43;;;1.48;;
35488;SDS011;21602;55.670;37.578;2023-05-07T12:01:01;1.63;;;0.95;;
35488;SDS011;21602;55.670;37.578;2023-05-07T12:03:28;2.88;;;0.85;;
35488;SDS011;21602;55.670;37.578;2023-05-07T12:05:53;1.45;;;1.02;;
35488;SDS011;21602;55.670;37.578;2023-05-07T12:08:20;2.53;;;1.00;;
35488;SDS011;21602;55.670;37.578;2023-05-07T12:10:48;1.83;;;1.10;;
35488;SDS011;21602;55.670;37.578;2023-05-07T12:13:19;0.80;;;0.80;;
35488;SDS011;21602;55.670;37.578;2023-05-07T12:15:46;3.45;;;1.30;;
35488;SDS011;21602;55.670;37.578;2023-05-07T12:18:12;1.00;;;0.88;;
35488;SDS011;21602;55.670;37.578;2023-05-07T12:20:38;3.13;;;1.33;;
35488;SDS011;21602;55.670;37.578;2023-05-07T12:23:05;2.80;;;1.40;;
35488;SDS011;21602;55.670;37.578;2023-05-07T12:25:37;10.23;;;1.52;;
35488;SDS011;21602;55.670;37.578;2023-05-07T12:28:04;5.17;;;1.37;;
35488;SDS011;21602;55.670;37.578;2023-05-07T12:30:37;1.25;;;0.95;;
35488;SDS011;21602;55.670;37.578;2023-05-07T12:33:04;4.28;;;1.00;;
35488;SDS011;21602;55.670;37.578;2023-05-07T12:35:30;1.40;;;1.00;;
35488;SDS011;21602;55.670;37.578;2023-05-07T12:37:58;1.42;;;1.25;;
35488;SDS011;21602;55.670;37.578;2023-05-07T12:40:39;2.53;;;1.23;;
35488;SDS011;21602;55.670;37.578;2023-05-07T12:43:18;3.25;;;1.00;;
35488;SDS011;21602;55.670;37.578;2023-05-07T12:45:51;1.60;;;1.00;;
35488;SDS011;21602;55.670;37.578;2023-05-07T12:51:04;3.78;;;1.20;;
35488;SDS011;21602;55.670;37.578;2023-05-07T12:53:31;1.92;;;1.20;;
35488;SDS011;21602;55.670;37.578;2023-05-07T12:55:58;3.75;;;1.55;;
35488;SDS011;21602;55.670;37.578;2023-05-07T13:00:51;2.38;;;1.23;;
35488;SDS011;21602;55.670;37.578;2023-05-07T13:03:23;3.08;;;1.00;;
35488;SDS011;21602;55.670;37.578;2023-05-07T13:06:04;3.42;;;1.15;;
35488;SDS011;21602;55.670;37.578;2023-05-07T13:08:32;3.63;;;1.02;;
35488;SDS011;21602;55.670;37.578;2023-05-07T13:11:03;1.38;;;0.95;;
35488;SDS011;21602;55.670;37.578;2023-05-07T13:13:30;3.92;;;1.23;;
35488;SDS011;21602;55.670;37.578;2023-05-07T13:15:57;5.82;;;1.48;;
35488;SDS011;21602;55.670;37.578;2023-05-07T13:18:26;9.43;;;1.20;;
35488;SDS011;21602;55.670;37.578;2023-05-07T13:20:53;1.65;;;1.13;;
35488;SDS011;21602;55.670;37.578;2023-05-07T13:23:19;3.70;;;1.20;;
35488;SDS011;21602;55.670;37.578;2023-05-07T13:25:45;1.35;;;0.80;;
35488;SDS011;21602;55.670;37.578;2023-05-07T13:28:11;2.38;;;0.93;;
35488;SDS011;21602;55.670;37.578;2023-05-07T13:30:37;6.85;;;1.20;;
35488;SDS011;21602;55.670;37.578;2023-05-07T13:33:04;4.80;;;1.00;;
35488;SDS011;21602;55.670;37.578;2023-05-07T13:35:30;1.27;;;1.02;;
35488;SDS011;21602;55.670;37.578;2023-05-07T13:37:56;1.58;;;1.00;;
35488;SDS011;21602;55.670;37.578;2023-05-07T13:40:22;1.90;;;1.40;;
35488;SDS011;21602;55.670;37.578;2023-05-07T13:42:49;7.55;;;1.30;;
35488;SDS011;21602;55.670;37.578;2023-05-07T13:45:17;4.32;;;1.65;;
35488;SDS011;21602;55.670;37.578;2023-05-07T13:47:43;1.30;;;1.10;;
35488;SDS011;21602;55.670;37.578;2023-05-07T13:50:10;1.27;;;1.00;;
35488;SDS011;21602;55.670;37.578;2023-05-07T13:52:37;1.50;;;1.00;;
35488;SDS011;21602;55.670;37.578;2023-05-07T13:55:03;5.05;;;1.20;;
35488;SDS011;21602;55.670;37.578;2023-05-07T13:57:30;1.33;;;0.95;;
35488;SDS011;21602;55.670;37.578;2023-05-07T13:59:56;1.10;;;1.00;;
35488;SDS011;21602;55.670;37.578;2023-05-07T14:02:21;2.50;;;1.30;;
35488;SDS011;21602;55.670;37.578;2023-05-07T14:04:47;3.10;;;1.05;;
35488;SDS011;21602;55.670;37.578;2023-05-07T14:07:13;1.15;;;0.90;;
35488;SDS011;21602;55.670;37.578;2023-05-07T14:09:39;3.70;;;1.00;;
35488;SDS011;21602;55.670;37.578;2023-05-07T14:12:05;2.45;;;1.10;;
35488;SDS011;21602;55.670;37.578;2023-05-07T14:14:31;1.35;;;1.00;;
35488;SDS011;21602;55.670;37.578;2023-05-07T14:16:57;1.23;;;1.02;;
35488;SDS011;21602;55.670;37.578;2023-05-07T14:19:22;1.20;;;1.02;;
35488;SDS011;21602;55.670;37.578;2023-05-07T14:21:49;2.63;;;1.40;;
35488;SDS011;21602;55.670;37.578;2023-05-07T14:24:15;4.38;;;1.20;;
35488;SDS011;21602;55.670;37.578;2023-05-07T14:26:41;3.40;;;1.38;;
35488;SDS011;21602;55.670;37.578;2023-05-07T14:29:10;2.60;;;1.38;;
35488;SDS011;21602;55.670;37.578;2023-05-07T14:31:37;2.42;;;1.50;;
35488;SDS011;21602;55.670;37.578;2023-05-07T14:34:03;3.83;;;1.42;;
35488;SDS011;21602;55.670;37.578;2023-05-07T14:36:29;0.98;;;0.88;;
35488;SDS011;21602;55.670;37.578;2023-05-07T14:38:57;3.78;;;1.25;;
35488;SDS011;21602;55.670;37.578;2023-05-07T14:41:24;2.70;;;1.50;;
35488;SDS011;21602;55.670;37.578;2023-05-07T14:43:50;5.97;;;1.10;;
35488;SDS011;21602;55.670;37.578;2023-05-07T14:46:17;2.55;;;1.85;;
35488;SDS011;21602;55.670;37.578;2023-05-07T14:48:46;1.05;;;0.98;;
35488;SDS011;21602;55.670;37.578;2023-05-07T14:51:12;3.70;;;1.35;;
35488;SDS011;21602;55.670;37.578;2023-05-07T14:53:40;2.70;;;1.20;;
35488;SDS011;21602;55.670;37.578;2023-05-07T14:56:07;1.27;;;1.17;;
35488;SDS011;21602;55.670;37.578;2023-05-07T14:58:33;1.38;;;1.05;;
35488;SDS011;21602;55.670;37.578;2023-05-07T15:01:00;2.22;;;1.10;;
35488;SDS011;21602;55.670;37.578;2023-05-07T15:03:26;3.80;;;1.10;;
35488;SDS011;21602;55.670;37.578;2023-05-07T15:05:52;1.48;;;1.38;;
35488;SDS011;21602;55.670;37.578;2023-05-07T15:08:18;1.45;;;1.30;;
35488;SDS011;21602;55.670;37.578;2023-05-07T15:10:45;3.67;;;1.33;;